Detall de PIREP

Printer-friendly versionPDF version

[2011/04/16 15:40:00]
Flight IATA:CT1001
Pilot Number:026
Company ICAO:CAT
Aircraft Type:F50/A
PAX:50
Aircraft Registration:PAOB
Departing Airport: LICD
Destination Airport: LIEA
Alternate Airport:LIEO
Online: VATSIM
Route:VERAK UM740 MEGAN UM732 SODIO
Flight Level:F200
No Slew and time accel
No pause
Crash detect
Detect pilot in Cockpit between each 30 and 45 minutes
15:40 Zero fuel Weight: 36803 Lbs, Fuel Weight: 3798 Lbs
15:40 VATSIM:LICD 161450Z 32011KT CAVOK 18/11 Q1011 RMK VIS MIN 9999W
15:40 VATSIM:LIEA 161520Z 03013KT 9999 FEW035 17/06 Q1016
15:40 VOICE CATALONIAN / MEDITERRANEAN ODYSSEY
15:47 Parking Brakes off
15:54 Take-off
15:54 Take off Weight: 40507 Lbs
15:54 Wind: 319º @ 011 Knots Heading: 075º
15:54 POS N35º 29´ 51´´ E012º 37´ 16´´
15:54 Gear Up: 125 Knots
15:54 Flaps:1 at 125 Knots
15:55 Flaps:0 at 142 Knots
16:08 TOC
16:08 Fuel Weight: 3148 Lb
16:09 Wind:325º@027 Knots Heading: 336º Ground Speed: 200 Knots Altitude 19790 ft
16:24 Wind:322º@004 Knots Heading: 001º Ground Speed: 255 Knots Altitude 19868 ft
16:39 Wind:339º@026 Knots Heading: 312º Ground Speed: 235 Knots Altitude 19924 ft
16:54 Wind:013º@037 Knots Heading: 315º Ground Speed: 239 Knots Altitude 19986 ft
17:09 Wind:039º@081 Knots Heading: 346º Ground Speed: 220 Knots Altitude 19986 ft
17:17 TOD
17:17 Fuel Weight: 1242 Lb
17:24 Wind:358º@015 Knots Heading: 328º Ground Speed: 252 Knots Altitude 10984 ft
17:36 Gear Down: 178 Knots
17:38 Flaps:1 at 198 Knots
17:38 Flaps:2 at 195 Knots
17:38 Flaps:3 at 150 Knots
17:39 Wind:030º@009 Knots Heading: 024º Ground Speed: 104 Knots Altitude 098 ft
17:39 TouchDown:Rate -116 ft/min Speed: 114 Knots
17:39 VATSIM:LIEA 161720Z 03009KT 9999 FEW030 15/08 Q1017
17:39 Land
17:39 Wind:030º@009 Knots
17:39 Heading: 024º
17:39 Flight Duration: 01:45
17:39 Landing Weight: 37647 Lbs
17:39 POS N40º 37´ 45´´ E008º 17´ 21´´
17:42 Parking brakes on
17:42 Block to Block Duration: 01:55
17:42 Final Fuel: 817 Lbls
17:42 Spent Fuel: 2980 Lbls
17:42 Flight Length: 398 NM
17:42 TOD Land Length: 80 NM

Exportar CSV

Powered by Drupal - Modified by Danger4k